createdAt,value
2024-01-20T00:08:01.475Z,31
2024-01-20T00:19:01.874Z,33
2024-01-20T00:24:31.984Z,31
2024-01-20T00:30:02.287Z,33
2024-01-20T00:35:32.415Z,32
2024-01-20T00:41:02.573Z,29
2024-01-20T00:46:32.711Z,34
2024-01-20T00:52:02.896Z,26
2024-01-20T00:57:33.092Z,29
2024-01-20T01:03:03.284Z,32
2024-01-20T01:08:33.464Z,33
2024-01-20T01:14:03.720Z,29
2024-01-20T01:19:33.791Z,31
2024-01-20T01:25:03.975Z,27
2024-01-20T01:30:34.156Z,30
2024-01-20T01:36:04.330Z,32
2024-01-20T01:41:34.527Z,30
2024-01-20T01:47:04.720Z,40
2024-01-20T01:52:34.867Z,37
2024-01-20T01:58:05.064Z,33
2024-01-20T02:03:35.291Z,32
2024-01-20T02:09:05.444Z,30
2024-01-20T02:14:35.582Z,32
2024-01-20T02:20:05.770Z,31
2024-01-20T02:25:35.943Z,29
2024-01-20T02:31:06.140Z,33
2024-01-20T02:36:36.303Z,30
2024-01-20T02:42:06.507Z,31
2024-01-20T02:47:36.687Z,33
2024-01-20T02:53:06.848Z,32
2024-01-20T02:58:37.034Z,28
2024-01-20T03:04:07.320Z,32
2024-01-20T03:09:37.417Z,37
2024-01-20T03:15:07.579Z,29
2024-01-20T03:20:37.758Z,32
2024-01-20T03:26:07.956Z,25
2024-01-20T03:31:38.138Z,31
2024-01-20T03:37:08.294Z,30
2024-01-20T03:42:38.502Z,25
2024-01-20T03:48:08.738Z,28
2024-01-20T03:53:38.831Z,30
2024-01-20T03:59:09.004Z,36
2024-01-20T04:04:39.208Z,33
2024-01-20T04:10:09.372Z,31
2024-01-20T04:21:09.734Z,33
2024-01-20T04:26:39.902Z,29
2024-01-20T04:37:40.264Z,27
2024-01-20T04:43:10.439Z,24
2024-01-20T04:48:40.709Z,30
2024-01-20T04:54:10.830Z,31
2024-01-20T04:59:40.979Z,26
2024-01-20T05:10:41.335Z,24
2024-01-20T05:16:11.520Z,27
2024-01-20T05:27:11.885Z,25
2024-01-20T05:32:42.141Z,22
2024-01-20T05:43:42.408Z,27
2024-01-20T05:49:12.705Z,26
2024-01-20T05:54:42.775Z,24
2024-01-20T06:00:13.025Z,21
2024-01-20T06:05:43.165Z,22
2024-01-20T06:11:13.310Z,18
2024-01-20T06:16:43.522Z,17
2024-01-20T06:22:13.687Z,24
2024-01-20T06:27:43.870Z,20
2024-01-20T06:38:44.220Z,19
2024-01-20T06:44:14.400Z,23
2024-01-20T06:49:44.603Z,30
2024-01-20T06:55:14.750Z,25
2024-01-20T07:00:45.093Z,24
2024-01-20T07:06:15.218Z,15
2024-01-20T07:11:45.287Z,21
2024-01-20T07:17:15.475Z,24
2024-01-20T07:22:45.666Z,18
2024-01-20T07:28:15.832Z,22
2024-01-20T07:33:46.042Z,27
2024-01-20T07:39:16.199Z,26
2024-01-20T07:44:46.349Z,23
2024-01-20T07:50:16.546Z,22
2024-01-20T08:01:16.938Z,23
2024-01-20T08:06:47.137Z,25
2024-01-20T08:12:17.292Z,30
2024-01-20T08:17:47.445Z,25
2024-01-20T08:23:17.612Z,28
2024-01-20T08:28:47.793Z,27
2024-01-20T08:34:18.015Z,33
2024-01-20T08:39:48.135Z,25
2024-01-20T08:45:18.373Z,20
2024-01-20T08:50:48.507Z,26
2024-01-20T08:56:18.683Z,22
2024-01-20T09:01:48.864Z,28
2024-01-20T09:07:19.048Z,27
2024-01-20T09:12:49.224Z,24
2024-01-20T09:18:21.751Z,25
2024-01-20T09:23:49.577Z,29
2024-01-20T09:29:19.751Z,27
2024-01-20T09:34:49.920Z,19
2024-01-20T09:40:20.089Z,22
2024-01-20T09:45:50.274Z,21
2024-01-20T09:51:20.472Z,16
2024-01-20T09:56:50.616Z,25
2024-01-20T10:02:20.798Z,26
2024-01-20T10:13:21.192Z,21
2024-01-20T10:18:51.354Z,22
2024-01-20T10:24:21.525Z,24
2024-01-20T10:29:51.684Z,18
2024-01-20T10:35:21.957Z,24
2024-01-20T10:40:52.061Z,23
2024-01-20T10:46:22.249Z,21
2024-01-20T10:51:52.503Z,18
2024-01-20T10:57:22.645Z,16
2024-01-20T11:02:52.792Z,18
2024-01-20T11:08:22.968Z,16
2024-01-20T11:13:53.145Z,15
2024-01-20T11:19:23.330Z,19
2024-01-20T11:24:53.504Z,15
2024-01-20T11:35:53.878Z,16
2024-01-20T11:41:24.038Z,15
2024-01-20T11:46:54.217Z,14
2024-01-20T11:52:24.390Z,13
2024-01-20T11:57:54.571Z,15
2024-01-20T12:03:24.837Z,16
2024-01-20T12:08:54.942Z,14
2024-01-20T12:14:25.142Z,16
2024-01-20T12:19:55.327Z,11
2024-01-20T12:25:25.482Z,14
2024-01-20T12:30:55.678Z,12
2024-01-20T12:36:25.844Z,13
2024-01-20T12:41:56.023Z,10
2024-01-20T12:47:26.243Z,12
2024-01-20T12:52:56.363Z,13
2024-01-20T12:58:26.536Z,12
2024-01-20T13:03:56.712Z,15
2024-01-20T13:09:26.900Z,12
2024-01-20T13:14:57.134Z,11
2024-01-20T13:20:27.252Z,13
2024-01-20T13:25:57.427Z,12
2024-01-20T13:31:27.607Z,15
2024-01-20T13:36:57.784Z,10
2024-01-20T13:42:28.034Z,19
2024-01-20T13:47:58.260Z,10
2024-01-20T13:58:58.505Z,9
2024-01-20T14:04:28.734Z,10
2024-01-20T14:09:58.843Z,8
2024-01-20T14:15:29.058Z,10
2024-01-20T14:31:59.577Z,9
2024-01-20T14:37:29.746Z,12
2024-01-20T14:43:00.056Z,11
2024-01-20T14:48:30.268Z,10
2024-01-20T15:05:00.618Z,11
2024-01-20T15:10:30.818Z,8
2024-01-20T15:16:01.073Z,12
2024-01-20T15:38:02.465Z,10
2024-01-20T15:49:02.151Z,13
2024-01-20T15:54:32.250Z,10
2024-01-20T16:00:02.453Z,13
2024-01-20T16:11:02.720Z,12
2024-01-20T16:16:32.889Z,13
2024-01-20T16:22:03.098Z,11
2024-01-20T16:27:33.340Z,12
2024-01-20T16:44:03.793Z,9
2024-01-20T16:49:34.069Z,14
2024-01-20T16:55:13.560Z,16
2024-01-20T17:00:34.357Z,14
2024-01-20T17:06:04.514Z,19
2024-01-20T17:11:34.688Z,15
2024-01-20T17:17:04.865Z,11
2024-01-20T17:22:35.031Z,16
2024-01-20T17:28:05.244Z,14
2024-01-20T17:33:35.450Z,17
2024-01-20T17:39:05.633Z,13
2024-01-20T17:44:35.786Z,9
2024-01-20T17:50:05.938Z,8
2024-01-20T17:56:53.061Z,18
2024-01-20T18:02:23.229Z,22
2024-01-20T18:07:53.426Z,51
2024-01-20T18:13:23.595Z,20
2024-01-20T18:18:53.831Z,13
2024-01-20T18:24:23.955Z,14
2024-01-20T18:29:54.133Z,15
2024-01-20T18:35:24.314Z,16
2024-01-20T18:46:24.675Z,15
2024-01-20T18:51:54.850Z,14
2024-01-20T19:02:55.207Z,12
2024-01-20T19:08:25.421Z,18
2024-01-20T19:13:55.588Z,30
2024-01-20T19:19:25.811Z,44
2024-01-20T19:24:55.961Z,55
2024-01-20T19:30:26.193Z,19
2024-01-20T19:35:56.310Z,21
2024-01-20T19:41:26.480Z,14
2024-01-20T19:46:56.667Z,15
2024-01-20T19:52:26.848Z,13
2024-01-20T19:57:57.206Z,11
2024-01-20T20:03:27.239Z,12
2024-01-20T20:08:57.386Z,11
2024-01-20T20:14:27.567Z,12
2024-01-20T20:19:57.863Z,11
2024-01-20T20:25:27.926Z,10
2024-01-20T20:36:28.356Z,15
2024-01-20T20:41:58.490Z,19
2024-01-20T20:52:58.828Z,12
2024-01-20T21:09:29.393Z,14
2024-01-20T21:20:29.782Z,12
2024-01-20T21:31:30.108Z,13
2024-01-20T21:37:00.280Z,16
2024-01-20T21:42:30.460Z,15
2024-01-20T21:48:00.689Z,16
2024-01-20T21:53:30.899Z,15
2024-01-20T21:59:01.024Z,9
2024-01-20T22:04:31.199Z,14
2024-01-20T22:10:01.377Z,10
2024-01-20T22:15:31.610Z,8
2024-01-20T22:21:01.755Z,16
2024-01-20T22:37:32.274Z,11
2024-01-20T22:43:02.444Z,14
2024-01-20T22:48:32.689Z,11
2024-01-20T22:54:02.809Z,10
2024-01-20T22:59:32.997Z,13
2024-01-20T23:05:03.263Z,12
2024-01-20T23:16:03.536Z,10
2024-01-20T23:21:33.755Z,14
2024-01-20T23:27:03.880Z,10
2024-01-20T23:32:34.144Z,12
2024-01-20T23:38:04.255Z,11
2024-01-20T23:43:34.432Z,9
2024-01-20T23:49:04.610Z,12
2024-01-20T23:54:34.792Z,11
